Weather at Jurish Highway Strip H

Public forecast

Using degrees Celsius for public forecast. Weather courtesy of forecast.io.

Closest aviation weather report (METAR) to Jurish Highway Strip H

Closest report is Ben Gurion International Airport, 23.9 nm (44.3 km) WSW.

2024/05/25 22:50 (retrieved 16 minutes ago)

LLBG 252250Z 17005KT 9000 FEW020 SCT025 21/18 Q1012 NOSIG

Closest aviation forecast (TAF) to Jurish Highway Strip H

Closest forecast is Ben Gurion International Airport, 23.9 nm (44.3 km) WSW.

2024/05/25 18:12 (retrieved 5 hours ago)

TAF TAF LLBG 251707Z 2518/2618 26008KT 9999 FEW025 BECMG 2519/2521 VRB03KT 7000 SCT020 PROB40 TEMPO 2521/2605 17006KT 5000 FU SCT015 BKN018 BECMG 2607/2609 27010KT 9999 FEW025 BECMG 2615/2617 VRB03KT CAVOK TX29/2611Z TN20/2603Z